Time;durP1;ratioP1;P1;durP2;ratioP2;P2;SDS_P1;SDS_P2;PMS_P1;PMS_P2;Temp;Humidity;BMP_temperature;BMP_pressure;BME280_temperature;BME280_humidity;BME280_pressure;Samples;Min_cycle;Max_cycle;Signal;HPM_P1;HPM_P2
2023/05/12 00:01:38;;;;;;;7.47;7.17;;;13.30;99.90;;;;;;5084906;28;20504;-69
2023/05/12 00:04:05;;;;;;;8.70;8.10;;;13.30;99.90;;;;;;5084040;28;21232;-71
2023/05/12 00:06:32;;;;;;;10.40;9.40;;;13.40;99.90;;;;;;5088445;28;20469;-70
2023/05/12 00:09:00;;;;;;;7.47;7.17;;;13.40;99.90;;;;;;5082288;28;20475;-70
2023/05/12 00:11:26;;;;;;;10.10;7.20;;;13.40;99.90;;;;;;5086450;28;20465;-70
2023/05/12 00:13:54;;;;;;;6.47;6.27;;;13.30;99.90;;;;;;5077490;28;20543;-69
2023/05/12 00:16:22;;;;;;;6.07;5.87;;;13.30;99.90;;;;;;5085002;28;20827;-70
2023/05/12 00:18:51;;;;;;;8.43;8.03;;;13.30;99.90;;;;;;5089320;28;20492;-70
2023/05/12 00:21:18;;;;;;;6.13;5.93;;;13.40;99.90;;;;;;5069112;28;20496;-70
2023/05/12 00:23:45;;;;;;;8.27;7.77;;;13.30;99.90;;;;;;5080348;28;20460;-70
2023/05/12 00:26:12;;;;;;;6.80;6.60;;;13.30;99.90;;;;;;5083556;28;20553;-69
2023/05/12 00:28:38;;;;;;;13.63;12.43;;;13.30;99.90;;;;;;5085433;28;20485;-70
2023/05/12 00:31:05;;;;;;;9.37;8.43;;;13.20;99.90;;;;;;5075172;28;20861;-70
2023/05/12 00:33:32;;;;;;;7.10;6.83;;;13.30;99.90;;;;;;5089612;28;20454;-71
2023/05/12 00:36:02;;;;;;;7.23;6.83;;;13.30;99.90;;;;;;5076463;28;20470;-71
2023/05/12 00:38:29;;;;;;;7.40;7.10;;;13.30;99.90;;;;;;5078283;28;20466;-71
2023/05/12 00:40:55;;;;;;;6.73;6.53;;;13.30;99.90;;;;;;5080575;28;20478;-70
2023/05/12 00:43:22;;;;;;;6.73;6.53;;;13.30;99.90;;;;;;5083449;28;20835;-70
2023/05/12 00:45:49;;;;;;;8.10;7.80;;;13.40;99.90;;;;;;5087547;28;21230;-71
2023/05/12 00:48:16;;;;;;;7.80;7.60;;;13.40;99.90;;;;;;5093456;28;20496;-71
2023/05/12 00:50:44;;;;;;;8.00;7.70;;;13.40;99.90;;;;;;5095796;28;20975;-69
2023/05/12 00:53:13;;;;;;;8.00;7.50;;;13.40;99.90;;;;;;5101865;28;20461;-69
2023/05/12 00:55:40;;;;;;;7.17;6.97;;;13.50;99.90;;;;;;5104974;28;20500;-68
2023/05/12 00:58:08;;;;;;;6.47;6.27;;;13.50;99.90;;;;;;5101476;27;20469;-69
2023/05/12 01:00:35;;;;;;;7.20;7.00;;;13.50;99.90;;;;;;5106976;28;20811;-70
2023/05/12 01:03:03;;;;;;;8.63;8.23;;;13.50;99.90;;;;;;5109241;28;20678;-68
2023/05/12 01:05:35;;;;;;;11.47;10.37;;;13.50;99.90;;;;;;5097169;27;20501;-69
2023/05/12 01:08:03;;;;;;;8.93;8.37;;;13.40;99.90;;;;;;5112953;27;20465;-69
2023/05/12 01:10:31;;;;;;;7.53;7.23;;;13.30;99.90;;;;;;5105202;28;20515;-69
2023/05/12 01:12:59;;;;;;;8.60;8.20;;;13.40;99.90;;;;;;5100243;28;20465;-69
2023/05/12 01:15:26;;;;;;;7.50;7.10;;;13.30;99.90;;;;;;5098464;27;20534;-69
2023/05/12 01:17:57;;;;;;;7.30;6.93;;;13.30;99.90;;;;;;5109016;28;20492;-69
2023/05/12 01:20:26;;;;;;;8.80;8.13;;;13.30;99.90;;;;;;5103065;28;20466;-69
2023/05/12 01:22:54;;;;;;;6.93;6.63;;;13.30;99.90;;;;;;5095454;27;20988;-69
2023/05/12 01:25:24;;;;;;;11.10;7.60;;;13.30;99.90;;;;;;5104658;28;20513;-69
2023/05/12 01:27:53;;;;;;;6.77;6.47;;;13.30;99.90;;;;;;5095978;27;20549;-70
2023/05/12 01:30:21;;;;;;;7.07;6.67;;;13.30;99.90;;;;;;5101626;27;20472;-69
2023/05/12 01:32:48;;;;;;;6.37;6.03;;;13.20;99.90;;;;;;5102549;27;20464;-69
2023/05/12 01:35:15;;;;;;;6.20;6.00;;;13.10;99.90;;;;;;5102380;27;20978;-69
2023/05/12 01:37:42;;;;;;;6.27;5.87;;;13.10;99.90;;;;;;5094623;28;20462;-70
2023/05/12 01:40:09;;;;;;;7.20;6.57;;;13.10;99.90;;;;;;5101130;27;20652;-69
2023/05/12 01:42:38;;;;;;;5.40;5.20;;;13.20;99.90;;;;;;5106034;28;20913;-69
2023/05/12 01:45:08;;;;;;;7.63;7.27;;;13.20;99.90;;;;;;5104113;27;20861;-70
2023/05/12 01:47:35;;;;;;;5.53;5.33;;;13.20;99.90;;;;;;5104457;28;20489;-69
2023/05/12 01:50:02;;;;;;;6.87;6.57;;;13.10;99.90;;;;;;5101285;28;20461;-69
2023/05/12 01:52:29;;;;;;;6.03;5.83;;;13.10;99.90;;;;;;5097412;27;20515;-69
2023/05/12 01:54:57;;;;;;;7.10;6.70;;;13.10;99.90;;;;;;5098970;28;20468;-68
2023/05/12 01:57:24;;;;;;;5.77;5.57;;;13.10;99.90;;;;;;5093694;27;20453;-70
2023/05/12 01:59:51;;;;;;;6.77;6.17;;;13.00;99.90;;;;;;5090262;28;20518;-69
2023/05/12 02:02:20;;;;;;;5.70;5.50;;;13.00;99.90;;;;;;5105536;27;20484;-69
2023/05/12 02:04:47;;;;;;;5.70;5.50;;;13.00;99.90;;;;;;5098859;27;20848;-69
2023/05/12 02:07:15;;;;;;;5.67;5.47;;;13.00;99.90;;;;;;5102553;27;20970;-69
2023/05/12 02:09:42;;;;;;;5.73;5.53;;;13.00;99.90;;;;;;5108236;28;20453;-69
2023/05/12 02:12:09;;;;;;;6.10;5.90;;;13.00;99.90;;;;;;5101825;28;20457;-69
2023/05/12 02:14:36;;;;;;;5.80;5.60;;;13.00;99.90;;;;;;5097255;27;20454;-69
2023/05/12 02:17:03;;;;;;;6.00;5.80;;;13.10;99.90;;;;;;5103360;28;20478;-69
2023/05/12 02:19:32;;;;;;;6.80;6.60;;;13.10;99.90;;;;;;5097314;27;20546;-69
2023/05/12 02:21:59;;;;;;;6.33;6.13;;;13.20;99.90;;;;;;5107744;28;20492;-69
2023/05/12 02:24:26;;;;;;;6.43;6.23;;;13.10;99.90;;;;;;5103873;28;20544;-68
2023/05/12 02:26:53;;;;;;;6.23;6.03;;;13.10;99.90;;;;;;5106333;28;20556;-70
2023/05/12 02:29:20;;;;;;;6.20;6.00;;;13.00;99.90;;;;;;5101068;28;20462;-69
2023/05/12 02:31:47;;;;;;;5.97;5.77;;;12.90;99.90;;;;;;5095654;27;20466;-69
2023/05/12 02:34:15;;;;;;;5.70;5.50;;;12.90;99.90;;;;;;5101825;27;20456;-69
2023/05/12 02:36:43;;;;;;;5.60;5.40;;;12.90;99.90;;;;;;5107486;28;20461;-70
2023/05/12 02:39:10;;;;;;;5.63;5.43;;;12.90;99.90;;;;;;5090129;28;20471;-70
2023/05/12 02:41:37;;;;;;;5.90;5.70;;;13.00;99.90;;;;;;5095544;28;20805;-70
2023/05/12 02:44:04;;;;;;;6.17;5.97;;;13.10;99.90;;;;;;5103573;27;20462;-71
2023/05/12 02:46:31;;;;;;;6.30;6.10;;;13.10;99.90;;;;;;5106156;28;20509;-70
2023/05/12 02:48:57;;;;;;;7.00;6.70;;;13.10;99.90;;;;;;5079589;28;20480;-69
2023/05/12 02:51:24;;;;;;;7.30;6.90;;;12.90;99.90;;;;;;5074493;28;20523;-67
2023/05/12 02:53:52;;;;;;;6.37;6.10;;;12.80;99.90;;;;;;5080593;28;20913;-69
2023/05/12 02:56:20;;;;;;;6.53;6.23;;;12.60;99.90;;;;;;5081204;28;20515;-70
2023/05/12 02:58:46;;;;;;;6.40;6.00;;;12.40;99.90;;;;;;5081627;28;20907;-69
2023/05/12 03:01:13;;;;;;;5.27;4.87;;;12.40;99.90;;;;;;5077300;28;21033;-70
2023/05/12 03:03:40;;;;;;;5.03;4.73;;;12.40;99.90;;;;;;5078743;28;20633;-70
2023/05/12 03:06:08;;;;;;;4.80;4.67;;;12.30;99.90;;;;;;5083017;28;20511;-70
2023/05/12 03:08:36;;;;;;;4.53;4.33;;;12.30;99.90;;;;;;5076782;28;20977;-70
2023/05/12 03:11:04;;;;;;;4.73;4.53;;;12.40;99.90;;;;;;5080583;28;20564;-69
2023/05/12 03:13:31;;;;;;;4.83;4.73;;;12.40;99.90;;;;;;5079213;28;20471;-70
2023/05/12 03:16:00;;;;;;;4.93;4.83;;;12.40;99.90;;;;;;5078870;28;20462;-70
2023/05/12 03:18:27;;;;;;;4.97;4.87;;;12.40;99.90;;;;;;5086668;28;20535;-70
2023/05/12 03:20:54;;;;;;;5.37;5.17;;;12.50;99.90;;;;;;5073283;28;20464;-69
2023/05/12 03:23:21;;;;;;;5.00;4.90;;;12.60;99.90;;;;;;5086443;28;20792;-70
2023/05/12 03:25:48;;;;;;;5.43;5.23;;;12.60;99.90;;;;;;5078943;28;20462;-70
2023/05/12 03:28:16;;;;;;;5.60;5.40;;;12.60;99.90;;;;;;5080663;28;20957;-69
2023/05/12 03:30:43;;;;;;;5.13;5.00;;;12.60;99.90;;;;;;5078717;28;20474;-70
2023/05/12 03:33:11;;;;;;;5.37;5.17;;;12.50;99.90;;;;;;5079585;28;20760;-71
2023/05/12 03:35:37;;;;;;;5.90;5.67;;;12.60;99.90;;;;;;5080579;28;20471;-70
2023/05/12 03:38:04;;;;;;;5.63;5.43;;;12.60;99.90;;;;;;5077105;28;20759;-69
2023/05/12 03:40:31;;;;;;;5.80;5.60;;;12.60;99.90;;;;;;5077053;28;21015;-69
2023/05/12 03:42:58;;;;;;;5.80;5.60;;;12.70;99.90;;;;;;5083492;28;20482;-69
2023/05/12 03:45:26;;;;;;;5.90;5.70;;;12.70;99.90;;;;;;5080842;28;20932;-69
2023/05/12 03:47:53;;;;;;;5.90;5.70;;;12.70;99.90;;;;;;5086291;28;20911;-69
2023/05/12 03:50:20;;;;;;;6.43;6.20;;;12.70;99.90;;;;;;5102614;28;20482;-69
2023/05/12 03:52:48;;;;;;;6.60;6.40;;;12.70;99.90;;;;;;5092850;28;20523;-68
2023/05/12 03:55:15;;;;;;;6.10;5.90;;;12.70;99.90;;;;;;5096523;28;20802;-70
2023/05/12 03:57:42;;;;;;;6.70;6.50;;;12.80;99.90;;;;;;5089412;28;20891;-69
2023/05/12 04:00:11;;;;;;;6.90;6.70;;;12.80;99.90;;;;;;5101342;28;20552;-70
2023/05/12 04:02:40;;;;;;;6.60;6.40;;;12.80;99.90;;;;;;5106330;28;21195;-69
2023/05/12 04:05:08;;;;;;;6.80;6.60;;;12.80;99.90;;;;;;5098415;28;20579;-70
2023/05/12 04:07:36;;;;;;;7.07;6.87;;;12.90;99.90;;;;;;5102872;28;20481;-69
2023/05/12 04:10:03;;;;;;;7.27;7.07;;;12.90;99.90;;;;;;5101691;28;20477;-69
2023/05/12 04:12:30;;;;;;;7.17;6.97;;;12.90;99.90;;;;;;5101615;28;20505;-69
2023/05/12 04:14:56;;;;;;;8.10;7.80;;;12.80;99.90;;;;;;5103339;28;20502;-69
2023/05/12 04:17:23;;;;;;;8.20;7.90;;;12.90;99.90;;;;;;5105002;28;20477;-70
2023/05/12 04:19:52;;;;;;;8.40;8.10;;;12.90;99.90;;;;;;5104119;28;20461;-69
2023/05/12 04:22:19;;;;;;;8.37;8.07;;;12.90;99.90;;;;;;5089571;28;20569;-69
2023/05/12 04:24:46;;;;;;;7.97;7.67;;;13.00;99.90;;;;;;5109049;28;20799;-69
2023/05/12 04:27:14;;;;;;;7.90;7.60;;;13.00;99.90;;;;;;5101275;27;20509;-68
2023/05/12 04:29:41;;;;;;;8.57;8.27;;;13.00;99.90;;;;;;5100934;28;20456;-70
2023/05/12 04:32:08;;;;;;;10.60;10.10;;;13.10;99.90;;;;;;5100940;27;21074;-70
2023/05/12 04:34:35;;;;;;;9.00;8.70;;;13.10;99.90;;;;;;5103953;28;20460;-69
2023/05/12 04:37:04;;;;;;;8.20;7.90;;;13.10;99.90;;;;;;5110110;28;20468;-69
2023/05/12 04:39:32;;;;;;;8.30;8.00;;;13.20;99.90;;;;;;5100836;27;20825;-69
2023/05/12 04:42:00;;;;;;;8.30;8.00;;;13.10;99.90;;;;;;5102702;27;20480;-69
2023/05/12 04:44:27;;;;;;;8.67;8.37;;;13.20;99.90;;;;;;5106277;28;20549;-69
2023/05/12 04:46:55;;;;;;;8.70;8.40;;;13.30;99.90;;;;;;5096856;28;20458;-70
2023/05/12 04:49:21;;;;;;;8.73;8.43;;;13.20;99.90;;;;;;5105895;27;20485;-69
2023/05/12 04:51:49;;;;;;;8.50;8.20;;;13.30;99.90;;;;;;5101293;27;20461;-69
2023/05/12 04:54:17;;;;;;;9.03;8.73;;;13.30;99.90;;;;;;5107349;28;20457;-69
2023/05/12 04:56:44;;;;;;;9.23;8.93;;;13.40;99.90;;;;;;5103018;28;20839;-68
2023/05/12 04:59:14;;;;;;;18.13;17.33;;;13.50;99.90;;;;;;5095703;27;20600;-69
2023/05/12 05:01:41;;;;;;;11.23;10.43;;;13.60;99.90;;;;;;5097628;27;20467;-68
2023/05/12 05:04:08;;;;;;;9.33;9.03;;;13.60;99.90;;;;;;5107637;28;21067;-69
2023/05/12 05:06:35;;;;;;;9.50;9.20;;;13.50;99.90;;;;;;5095202;28;20457;-69
2023/05/12 05:09:02;;;;;;;9.50;9.20;;;13.60;99.90;;;;;;5108326;28;20468;-70
2023/05/12 05:11:31;;;;;;;9.37;9.07;;;13.60;99.90;;;;;;5100234;27;20449;-68
2023/05/12 05:13:57;;;;;;;9.47;9.17;;;13.60;99.90;;;;;;5100555;27;21500;-68
2023/05/12 05:16:24;;;;;;;8.83;8.53;;;13.60;99.90;;;;;;5098512;27;20462;-69
2023/05/12 05:18:51;;;;;;;8.70;8.40;;;13.60;99.90;;;;;;5094337;27;20513;-69
2023/05/12 05:21:18;;;;;;;9.10;8.80;;;13.60;99.90;;;;;;5106072;28;20833;-70
2023/05/12 05:23:45;;;;;;;9.07;8.77;;;13.50;99.90;;;;;;5098674;27;20501;-70
2023/05/12 05:26:12;;;;;;;9.20;8.90;;;13.60;99.90;;;;;;5105397;28;20530;-69
2023/05/12 05:28:41;;;;;;;8.53;8.23;;;13.60;99.90;;;;;;5095374;27;20519;-69
2023/05/12 05:31:08;;;;;;;8.50;8.20;;;13.70;99.90;;;;;;5104971;28;20488;-69
2023/05/12 05:33:35;;;;;;;7.87;7.57;;;13.70;99.90;;;;;;5103869;28;20449;-70
2023/05/12 05:36:02;;;;;;;7.70;7.40;;;13.70;99.90;;;;;;5101564;27;20483;-68
2023/05/12 05:38:28;;;;;;;8.27;7.93;;;13.70;99.90;;;;;;5096936;27;20462;-69
2023/05/12 05:40:56;;;;;;;7.50;7.30;;;13.80;99.90;;;;;;5100345;27;20472;-69
2023/05/12 05:43:23;;;;;;;7.80;7.50;;;13.70;99.90;;;;;;5104977;28;20481;-68
2023/05/12 05:45:51;;;;;;;7.23;6.97;;;13.80;99.90;;;;;;5103170;28;20561;-68
2023/05/12 05:48:19;;;;;;;8.43;7.27;;;13.80;99.90;;;;;;5103969;27;20489;-69
2023/05/12 05:50:46;;;;;;;7.00;6.80;;;13.90;99.90;;;;;;5103890;27;20471;-69
2023/05/12 05:53:13;;;;;;;7.40;7.10;;;14.00;99.90;;;;;;5097901;27;20844;-68
2023/05/12 05:55:40;;;;;;;8.37;7.97;;;14.00;99.90;;;;;;5102347;28;21046;-68
2023/05/12 05:58:07;;;;;;;7.57;7.27;;;13.90;99.90;;;;;;5103137;28;20537;-69
2023/05/12 06:00:34;;;;;;;6.50;6.30;;;14.00;99.90;;;;;;5103928;28;20472;-69
2023/05/12 06:03:02;;;;;;;6.07;5.87;;;14.10;99.90;;;;;;5106378;28;20481;-69
2023/05/12 06:05:29;;;;;;;5.90;5.70;;;14.10;99.90;;;;;;5101109;27;20466;-68
2023/05/12 06:07:56;;;;;;;6.23;5.93;;;14.10;99.90;;;;;;5101869;27;20486;-69
2023/05/12 06:10:23;;;;;;;6.47;6.07;;;14.10;99.90;;;;;;5108801;28;20465;-69
2023/05/12 06:12:50;;;;;;;5.83;5.63;;;14.10;99.90;;;;;;5096783;27;20476;-69
2023/05/12 06:15:17;;;;;;;6.00;5.80;;;14.10;99.90;;;;;;5102156;28;20485;-69
2023/05/12 06:17:45;;;;;;;5.03;4.93;;;14.10;99.90;;;;;;5100472;28;20839;-69
2023/05/12 06:20:13;;;;;;;4.80;4.70;;;14.10;99.90;;;;;;5104473;28;20527;-69
2023/05/12 06:22:43;;;;;;;6.30;6.00;;;14.10;99.90;;;;;;5091960;28;20477;-69
2023/05/12 06:25:10;;;;;;;5.20;5.00;;;14.20;99.90;;;;;;5103274;28;20927;-70
2023/05/12 06:27:37;;;;;;;4.40;4.30;;;14.30;99.90;;;;;;5101365;28;20461;-69
2023/05/12 06:30:04;;;;;;;5.27;5.03;;;14.40;99.90;;;;;;5106327;28;21176;-69
2023/05/12 06:32:32;;;;;;;4.93;4.73;;;14.50;99.90;;;;;;5100939;27;21065;-69
2023/05/12 06:34:59;;;;;;;4.97;4.77;;;14.30;99.90;;;;;;5101598;28;20460;-70
2023/05/12 06:37:27;;;;;;;5.10;4.90;;;14.20;99.90;;;;;;5105383;28;20461;-69
2023/05/12 06:39:53;;;;;;;5.30;5.10;;;14.20;99.90;;;;;;5097283;28;20461;-69
2023/05/12 06:42:20;;;;;;;4.87;4.77;;;14.10;99.90;;;;;;5101194;28;20673;-69
2023/05/12 06:44:47;;;;;;;5.30;5.10;;;14.20;99.90;;;;;;5104763;28;20449;-70
2023/05/12 06:47:13;;;;;;;5.33;5.13;;;14.10;99.90;;;;;;5101357;28;20876;-70
2023/05/12 06:49:41;;;;;;;5.30;5.10;;;14.20;99.90;;;;;;5099644;28;20456;-69
2023/05/12 06:52:08;;;;;;;6.90;6.60;;;14.30;99.90;;;;;;5093683;28;20828;-69
2023/05/12 06:54:36;;;;;;;7.30;7.00;;;14.20;99.90;;;;;;5095967;27;20470;-69
2023/05/12 06:57:03;;;;;;;10.53;6.80;;;14.10;99.90;;;;;;5101932;28;20469;-70
2023/05/12 06:59:30;;;;;;;6.10;5.90;;;14.00;99.90;;;;;;5091270;28;20850;-68
2023/05/12 07:01:57;;;;;;;6.53;6.30;;;13.90;99.90;;;;;;5099145;28;20461;-69
2023/05/12 07:04:25;;;;;;;6.13;5.87;;;13.90;99.90;;;;;;5095873;28;20486;-69
2023/05/12 07:06:52;;;;;;;9.20;8.60;;;14.00;99.90;;;;;;5102256;28;20935;-69
2023/05/12 07:09:19;;;;;;;5.80;5.60;;;14.10;99.90;;;;;;5104229;28;20469;-69
2023/05/12 07:11:47;;;;;;;6.47;6.17;;;14.20;99.90;;;;;;5101585;28;20572;-69
2023/05/12 07:14:14;;;;;;;5.50;5.30;;;14.30;99.90;;;;;;5097320;28;20469;-68
2023/05/12 07:16:41;;;;;;;5.90;5.70;;;14.50;99.90;;;;;;5104129;28;20510;-68
2023/05/12 07:19:08;;;;;;;6.50;6.30;;;14.60;99.90;;;;;;5096843;28;20983;-68
2023/05/12 07:21:35;;;;;;;6.67;6.43;;;14.60;99.90;;;;;;5102673;28;20463;-69
2023/05/12 07:24:02;;;;;;;7.23;6.63;;;14.60;99.90;;;;;;5097869;28;20489;-68
2023/05/12 07:26:29;;;;;;;8.00;7.70;;;14.70;99.90;;;;;;5097623;28;20548;-69
2023/05/12 07:28:59;;;;;;;11.13;6.97;;;14.70;99.90;;;;;;5106280;28;20825;-69
2023/05/12 07:31:26;;;;;;;6.63;6.33;;;14.80;99.90;;;;;;5093132;28;20873;-69
2023/05/12 07:33:53;;;;;;;6.47;6.27;;;14.90;99.90;;;;;;5100921;28;20805;-69
2023/05/12 07:36:20;;;;;;;6.67;6.47;;;15.00;99.90;;;;;;5091970;28;20513;-69
2023/05/12 07:38:47;;;;;;;7.63;7.33;;;15.00;99.90;;;;;;5100864;28;20819;-69
2023/05/12 07:41:14;;;;;;;7.50;7.20;;;15.40;99.90;;;;;;5093847;28;20837;-68
2023/05/12 07:43:41;;;;;;;9.53;9.03;;;15.70;99.90;;;;;;5103559;28;20550;-68
2023/05/12 07:46:10;;;;;;;9.40;8.90;;;15.80;99.90;;;;;;5102248;28;20457;-69
2023/05/12 07:48:38;;;;;;;9.20;8.80;;;15.80;99.90;;;;;;5097897;28;20526;-69
2023/05/12 07:51:05;;;;;;;9.20;8.90;;;15.80;99.90;;;;;;5098420;28;20837;-69
2023/05/12 07:53:32;;;;;;;9.30;9.00;;;16.00;99.90;;;;;;5093492;28;20465;-69
2023/05/12 07:55:59;;;;;;;10.07;9.67;;;16.30;99.90;;;;;;5100589;28;20473;-68
2023/05/12 07:58:26;;;;;;;10.13;9.73;;;16.50;99.90;;;;;;5103708;27;20460;-68
2023/05/12 08:00:53;;;;;;;10.80;10.40;;;16.80;99.90;;;;;;5103283;27;20580;-68
2023/05/12 08:03:21;;;;;;;11.20;10.70;;;16.90;99.90;;;;;;5106174;27;20476;-69
2023/05/12 08:05:48;;;;;;;12.80;12.10;;;16.90;99.90;;;;;;5104305;28;20942;-69
2023/05/12 08:08:16;;;;;;;11.83;11.33;;;16.80;99.90;;;;;;5104790;27;20464;-68
2023/05/12 08:10:43;;;;;;;11.90;11.40;;;16.50;99.90;;;;;;5106721;28;20515;-68
2023/05/12 08:13:10;;;;;;;13.10;12.50;;;16.60;99.90;;;;;;5104539;28;21009;-68
2023/05/12 08:15:37;;;;;;;11.73;11.23;;;16.50;99.90;;;;;;5106110;28;20456;-68
2023/05/12 08:18:04;;;;;;;12.50;12.00;;;16.70;99.90;;;;;;5103205;28;21074;-69
2023/05/12 08:20:32;;;;;;;13.03;12.43;;;16.80;99.90;;;;;;5106618;28;20488;-69
2023/05/12 08:22:58;;;;;;;13.17;12.57;;;17.10;99.90;;;;;;5108568;28;20517;-69
2023/05/12 08:25:29;;;;;;;13.83;13.13;;;17.00;99.90;;;;;;5108917;28;20457;-69
2023/05/12 08:27:58;;;;;;;13.87;13.27;;;17.10;99.90;;;;;;5104851;27;20457;-70
2023/05/12 08:30:25;;;;;;;13.87;13.27;;;17.20;99.90;;;;;;5108701;28;20922;-69
2023/05/12 08:32:52;;;;;;;13.63;13.03;;;17.30;99.90;;;;;;5104916;27;20617;-69
2023/05/12 08:35:19;;;;;;;14.43;13.73;;;17.40;99.90;;;;;;5108594;28;20457;-69
2023/05/12 08:37:48;;;;;;;14.17;13.50;;;17.50;99.90;;;;;;5100798;27;20523;-69
2023/05/12 08:40:20;;;;;;;14.27;13.67;;;17.70;99.90;;;;;;5101960;27;20461;-69
2023/05/12 08:42:54;;;;;;;15.10;14.40;;;17.70;99.90;;;;;;5106125;28;20457;-69
2023/05/12 08:45:22;;;;;;;13.80;13.20;;;17.50;99.90;;;;;;5103604;27;20466;-69
2023/05/12 08:47:51;;;;;;;14.27;13.63;;;17.40;99.90;;;;;;5107137;28;20512;-70
2023/05/12 08:50:21;;;;;;;13.93;13.33;;;17.60;99.90;;;;;;5102727;27;20957;-70
2023/05/12 08:52:50;;;;;;;15.07;14.07;;;18.00;99.90;;;;;;5106941;28;20869;-69
2023/05/12 08:55:20;;;;;;;15.00;14.20;;;18.20;99.90;;;;;;5105675;28;20955;-69
2023/05/12 08:57:49;;;;;;;15.20;14.50;;;18.40;99.90;;;;;;5108112;28;20461;-70
2023/05/12 09:00:16;;;;;;;16.10;15.30;;;18.70;99.90;;;;;;5102151;28;20519;-69
2023/05/12 09:02:44;;;;;;;15.97;14.90;;;18.70;99.90;;;;;;5100379;27;20464;-70
2023/05/12 09:05:11;;;;;;;15.50;14.80;;;18.60;99.90;;;;;;5100287;28;20577;-69
2023/05/12 09:07:43;;;;;;;15.10;14.40;;;18.90;99.90;;;;;;5102536;28;20461;-70
2023/05/12 09:10:15;;;;;;;15.43;14.63;;;19.00;99.90;;;;;;5106080;28;21261;-70
2023/05/12 09:12:45;;;;;;;15.90;15.10;;;19.30;99.90;;;;;;5103541;28;20469;-68
2023/05/12 09:15:17;;;;;;;15.80;15.10;;;19.60;99.90;;;;;;5102456;27;20511;-67
2023/05/12 09:17:44;;;;;;;16.77;15.97;;;20.20;99.90;;;;;;5098267;28;20468;-67
2023/05/12 09:20:12;;;;;;;16.13;15.33;;;20.20;99.90;;;;;;5105654;28;20731;-66
2023/05/12 09:22:39;;;;;;;16.27;15.47;;;20.70;99.90;;;;;;5099458;27;20588;-67
2023/05/12 09:25:18;;;;;;;15.83;15.13;;;20.90;99.90;;;;;;5103940;28;21006;-67
2023/05/12 09:27:46;;;;;;;15.80;15.10;;;21.00;99.90;;;;;;5098759;27;20464;-67
2023/05/12 09:30:15;;;;;;;16.53;15.73;;;21.20;99.90;;;;;;5102195;28;20506;-66
2023/05/12 09:32:42;;;;;;;16.37;15.57;;;21.60;99.90;;;;;;5102111;28;20476;-68
2023/05/12 09:35:10;;;;;;;27.23;24.53;;;22.00;99.90;;;;;;5097761;28;20460;-68
2023/05/12 09:37:38;;;;;;;16.50;15.70;;;22.10;99.90;;;;;;5105000;28;20880;-67
2023/05/12 09:40:07;;;;;;;16.13;15.33;;;22.10;99.90;;;;;;5105806;28;20464;-68
2023/05/12 09:42:36;;;;;;;16.90;16.10;;;22.20;99.90;;;;;;5103292;28;20465;-68
2023/05/12 09:45:05;;;;;;;16.87;16.07;;;22.80;99.90;;;;;;5096276;28;21061;-68
2023/05/12 09:47:36;;;;;;;16.33;15.53;;;23.00;99.90;;;;;;5094647;28;20466;-69
2023/05/12 09:50:04;;;;;;;16.33;15.53;;;23.50;99.90;;;;;;5102855;27;20554;-68
2023/05/12 09:52:31;;;;;;;16.87;16.07;;;23.00;99.90;;;;;;5098001;28;20886;-69
2023/05/12 09:55:09;;;;;;;16.40;15.60;;;23.00;99.90;;;;;;5100279;28;20467;-68
2023/05/12 09:57:40;;;;;;;16.30;15.50;;;22.80;99.90;;;;;;5105078;28;20462;-69
2023/05/12 10:00:09;;;;;;;16.00;15.20;;;22.50;99.90;;;;;;5091182;27;20573;-68
2023/05/12 10:02:40;;;;;;;16.17;15.37;;;22.40;99.90;;;;;;5084965;28;20469;-68
2023/05/12 10:05:13;;;;;;;17.67;16.67;;;22.40;99.90;;;;;;5108175;28;20787;-69
2023/05/12 10:07:40;;;;;;;16.00;15.30;;;22.60;99.90;;;;;;5094655;27;20884;-69
2023/05/12 10:10:10;;;;;;;16.60;15.80;;;21.80;99.90;;;;;;5103320;28;20465;-68
2023/05/12 10:12:38;;;;;;;16.17;15.37;;;21.30;99.90;;;;;;5103952;27;20457;-68
2023/05/12 10:15:08;;;;;;;16.07;15.37;;;21.30;99.90;;;;;;5107601;28;20515;-67
2023/05/12 10:17:36;;;;;;;15.70;15.00;;;21.30;99.90;;;;;;5101741;27;20564;-67
2023/05/12 10:20:05;;;;;;;15.80;15.10;;;21.80;99.90;;;;;;5104192;28;20469;-67
2023/05/12 10:22:34;;;;;;;15.87;15.13;;;22.30;99.90;;;;;;5104110;28;20472;-69
2023/05/12 10:25:02;;;;;;;16.33;15.53;;;22.10;99.90;;;;;;5100116;28;21067;-68
2023/05/12 10:27:29;;;;;;;16.53;15.73;;;22.50;99.90;;;;;;5098232;28;20461;-68
2023/05/12 10:29:59;;;;;;;16.80;16.00;;;22.60;99.90;;;;;;5104756;28;20825;-67
2023/05/12 10:32:27;;;;;;;16.50;15.70;;;22.00;99.90;;;;;;5097537;27;20971;-69
2023/05/12 10:34:57;;;;;;;16.83;16.03;;;21.40;99.90;;;;;;5104016;27;20970;-68
2023/05/12 10:37:25;;;;;;;16.60;15.80;;;21.40;99.90;;;;;;5104437;28;20469;-67
2023/05/12 10:39:52;;;;;;;16.80;16.00;;;21.70;99.90;;;;;;5098857;28;20461;-68
2023/05/12 10:42:24;;;;;;;16.77;15.97;;;21.80;99.90;;;;;;5095191;27;20461;-67
2023/05/12 10:44:51;;;;;;;15.87;15.17;;;21.80;99.90;;;;;;5104352;28;20520;-68
2023/05/12 10:47:25;;;;;;;16.87;16.07;;;22.20;99.90;;;;;;5099618;28;20525;-68
2023/05/12 10:49:57;;;;;;;16.67;15.87;;;22.70;99.90;;;;;;5077768;28;20461;-67
2023/05/12 10:52:24;;;;;;;15.80;15.10;;;23.20;99.90;;;;;;5087367;28;20947;-68
2023/05/12 10:55:00;;;;;;;16.27;15.57;;;23.30;99.90;;;;;;5081985;28;20459;-68
2023/05/12 10:57:29;;;;;;;17.27;16.47;;;24.20;99.90;;;;;;5084653;28;20462;-68
2023/05/12 10:59:58;;;;;;;17.03;16.23;;;25.10;99.90;;;;;;5083995;28;20502;-68
2023/05/12 11:02:29;;;;;;;17.40;16.60;;;26.00;99.90;;;;;;5077533;28;20850;-68
2023/05/12 11:04:58;;;;;;;17.07;16.27;;;25.70;99.90;;;;;;5084471;28;20497;-68
2023/05/12 11:07:27;;;;;;;18.10;17.30;;;26.00;99.90;;;;;;5082239;28;20515;-67
2023/05/12 11:09:56;;;;;;;18.23;17.43;;;26.00;99.90;;;;;;5080072;28;20501;-67
2023/05/12 11:12:25;;;;;;;19.07;18.17;;;26.60;99.90;;;;;;5082763;28;20482;-68
2023/05/12 11:14:52;;;;;;;17.60;16.80;;;25.90;99.90;;;;;;5084364;28;21051;-67
2023/05/12 11:17:19;;;;;;;18.70;17.80;;;25.00;99.90;;;;;;5080402;28;20561;-69
2023/05/12 11:19:51;;;;;;;18.40;17.60;;;24.70;99.90;;;;;;5086215;28;20466;-68
2023/05/12 11:22:20;;;;;;;17.67;16.87;;;25.10;99.90;;;;;;5081042;28;20577;-69
2023/05/12 11:24:48;;;;;;;17.20;16.40;;;24.80;99.90;;;;;;5086522;28;20883;-68
2023/05/12 11:27:17;;;;;;;16.40;15.70;;;24.70;99.90;;;;;;5086444;28;20531;-68
2023/05/12 11:29:45;;;;;;;16.43;15.73;;;25.00;99.90;;;;;;5082947;28;20465;-69
2023/05/12 11:32:15;;;;;;;16.87;16.10;;;25.10;99.90;;;;;;5084956;28;20461;-68
2023/05/12 11:34:42;;;;;;;17.10;16.30;;;24.30;99.90;;;;;;5087445;28;20868;-68
2023/05/12 11:37:10;;;;;;;17.50;16.70;;;24.00;99.90;;;;;;5082930;28;20511;-69
2023/05/12 11:39:38;;;;;;;16.57;15.87;;;24.00;99.90;;;;;;5086209;28;20454;-69
2023/05/12 11:42:08;;;;;;;16.23;15.53;;;24.20;99.90;;;;;;5083894;28;20466;-70
2023/05/12 11:44:36;;;;;;;17.87;16.53;;;23.80;99.90;;;;;;5080460;28;20494;-69
2023/05/12 11:47:12;;;;;;;16.10;15.40;;;23.70;99.90;;;;;;5085605;28;20465;-70
2023/05/12 11:49:46;;;;;;;21.00;15.90;;;24.00;99.90;;;;;;5077414;28;20469;-68
2023/05/12 11:52:15;;;;;;;15.30;14.60;;;24.40;99.90;;;;;;5087042;28;20461;-70
2023/05/12 11:54:49;;;;;;;16.73;15.93;;;25.90;99.90;;;;;;5091344;28;20466;-70
2023/05/12 11:57:25;;;;;;;15.73;15.03;;;26.20;99.90;;;;;;5089433;28;21014;-69
2023/05/12 11:59:57;;;;;;;16.90;16.10;;;27.10;99.90;;;;;;5085996;28;20466;-70
2023/05/12 12:02:24;;;;;;;16.70;16.00;;;26.60;99.90;;;;;;5089045;28;20548;-69
2023/05/12 12:04:52;;;;;;;16.07;15.37;;;27.00;99.90;;;;;;5077648;28;20547;-70
2023/05/12 12:07:30;;;;;;;16.60;15.90;;;26.80;99.90;;;;;;5085307;28;20508;-71
2023/05/12 12:09:57;;;;;;;17.10;16.40;;;27.50;99.90;;;;;;5091102;28;20469;-67
2023/05/12 12:12:24;;;;;;;16.30;15.60;;;27.50;99.90;;;;;;5090608;28;20503;-69
2023/05/12 12:14:51;;;;;;;16.47;15.77;;;27.60;99.90;;;;;;5084791;28;20897;-68
2023/05/12 12:17:19;;;;;;;17.87;16.97;;;27.40;99.60;;;;;;5081570;28;20865;-69
2023/05/12 12:19:46;;;;;;;16.47;15.77;;;27.40;98.80;;;;;;5082181;28;20455;-68
2023/05/12 12:22:13;;;;;;;16.27;15.57;;;27.10;98.90;;;;;;5088081;28;20952;-69
2023/05/12 12:24:41;;;;;;;16.90;16.20;;;27.60;99.20;;;;;;5089911;28;20857;-69
2023/05/12 12:27:10;;;;;;;17.30;16.50;;;27.90;97.40;;;;;;5084845;28;20472;-68
2023/05/12 12:29:37;;;;;;;16.13;15.43;;;28.10;96.40;;;;;;5086511;28;20473;-68
2023/05/12 12:32:05;;;;;;;16.50;15.80;;;27.80;94.50;;;;;;5080961;28;21029;-69
2023/05/12 12:34:32;;;;;;;16.77;16.03;;;28.20;94.50;;;;;;5084985;28;21356;-68
2023/05/12 12:36:59;;;;;;;16.93;16.23;;;28.70;94.30;;;;;;5087431;28;20462;-69
2023/05/12 12:39:26;;;;;;;16.70;16.00;;;29.20;94.60;;;;;;5089162;28;20454;-69
2023/05/12 12:41:55;;;;;;;17.50;16.70;;;29.00;93.40;;;;;;5080551;28;20469;-67